sensor_id;sensor_type;location;lat;lon;timestamp;P1;durP1;ratioP1;P2;durP2;ratioP2
19278;SDS011;9773;47.062;15.446;2023-07-24T00:00:07;5.67;;;5.07;;
19278;SDS011;9773;47.062;15.446;2023-07-24T00:02:34;5.20;;;4.80;;
19278;SDS011;9773;47.062;15.446;2023-07-24T00:05:00;5.80;;;5.27;;
19278;SDS011;9773;47.062;15.446;2023-07-24T00:07:26;5.90;;;5.30;;
19278;SDS011;9773;47.062;15.446;2023-07-24T00:09:53;5.93;;;5.43;;
19278;SDS011;9773;47.062;15.446;2023-07-24T00:12:20;6.57;;;5.70;;
19278;SDS011;9773;47.062;15.446;2023-07-24T00:14:48;6.13;;;5.53;;
19278;SDS011;9773;47.062;15.446;2023-07-24T00:17:14;7.00;;;5.43;;
19278;SDS011;9773;47.062;15.446;2023-07-24T00:19:41;6.37;;;5.70;;
19278;SDS011;9773;47.062;15.446;2023-07-24T00:22:06;7.27;;;5.57;;
19278;SDS011;9773;47.062;15.446;2023-07-24T00:24:34;6.10;;;5.50;;
19278;SDS011;9773;47.062;15.446;2023-07-24T00:27:00;6.90;;;6.00;;
19278;SDS011;9773;47.062;15.446;2023-07-24T00:29:27;6.73;;;6.10;;
19278;SDS011;9773;47.062;15.446;2023-07-24T00:31:52;7.33;;;5.80;;
19278;SDS011;9773;47.062;15.446;2023-07-24T00:34:18;6.67;;;5.70;;
19278;SDS011;9773;47.062;15.446;2023-07-24T00:36:45;6.63;;;5.80;;
19278;SDS011;9773;47.062;15.446;2023-07-24T00:39:11;6.57;;;5.87;;
19278;SDS011;9773;47.062;15.446;2023-07-24T00:41:39;8.77;;;6.93;;
19278;SDS011;9773;47.062;15.446;2023-07-24T00:44:04;6.03;;;5.53;;
19278;SDS011;9773;47.062;15.446;2023-07-24T00:46:32;6.43;;;5.83;;
19278;SDS011;9773;47.062;15.446;2023-07-24T00:49:02;7.93;;;5.80;;
19278;SDS011;9773;47.062;15.446;2023-07-24T00:51:29;7.63;;;5.63;;
19278;SDS011;9773;47.062;15.446;2023-07-24T00:54:02;7.07;;;5.63;;
19278;SDS011;9773;47.062;15.446;2023-07-24T00:56:39;7.07;;;5.90;;
19278;SDS011;9773;47.062;15.446;2023-07-24T00:59:05;7.07;;;5.67;;
19278;SDS011;9773;47.062;15.446;2023-07-24T01:01:35;6.33;;;5.73;;
19278;SDS011;9773;47.062;15.446;2023-07-24T01:04:03;6.33;;;5.63;;
19278;SDS011;9773;47.062;15.446;2023-07-24T01:06:33;7.13;;;5.63;;
19278;SDS011;9773;47.062;15.446;2023-07-24T01:09:00;6.80;;;6.03;;
19278;SDS011;9773;47.062;15.446;2023-07-24T01:11:31;6.43;;;5.83;;
19278;SDS011;9773;47.062;15.446;2023-07-24T01:14:17;7.83;;;6.30;;
19278;SDS011;9773;47.062;15.446;2023-07-24T01:17:03;6.83;;;5.70;;
19278;SDS011;9773;47.062;15.446;2023-07-24T01:22:19;7.40;;;6.20;;
19278;SDS011;9773;47.062;15.446;2023-07-24T01:27:25;6.70;;;5.93;;
19278;SDS011;9773;47.062;15.446;2023-07-24T01:29:55;7.53;;;6.63;;
19278;SDS011;9773;47.062;15.446;2023-07-24T01:32:21;7.80;;;6.07;;
19278;SDS011;9773;47.062;15.446;2023-07-24T01:34:47;6.40;;;5.80;;
19278;SDS011;9773;47.062;15.446;2023-07-24T01:37:14;6.87;;;5.80;;
19278;SDS011;9773;47.062;15.446;2023-07-24T01:39:41;6.63;;;5.73;;
19278;SDS011;9773;47.062;15.446;2023-07-24T01:42:09;8.50;;;6.27;;
19278;SDS011;9773;47.062;15.446;2023-07-24T01:44:36;7.73;;;6.00;;
19278;SDS011;9773;47.062;15.446;2023-07-24T01:47:01;7.13;;;5.73;;
19278;SDS011;9773;47.062;15.446;2023-07-24T01:49:28;7.13;;;6.43;;
19278;SDS011;9773;47.062;15.446;2023-07-24T01:51:54;7.60;;;5.93;;
19278;SDS011;9773;47.062;15.446;2023-07-24T01:54:23;8.27;;;6.43;;
19278;SDS011;9773;47.062;15.446;2023-07-24T01:56:49;7.30;;;6.27;;
19278;SDS011;9773;47.062;15.446;2023-07-24T01:59:15;7.47;;;6.27;;
19278;SDS011;9773;47.062;15.446;2023-07-24T02:01:41;7.80;;;6.43;;
19278;SDS011;9773;47.062;15.446;2023-07-24T02:04:07;7.40;;;6.70;;
19278;SDS011;9773;47.062;15.446;2023-07-24T02:06:33;8.63;;;6.30;;
19278;SDS011;9773;47.062;15.446;2023-07-24T02:08:59;7.60;;;6.70;;
19278;SDS011;9773;47.062;15.446;2023-07-24T02:11:25;7.23;;;6.53;;
19278;SDS011;9773;47.062;15.446;2023-07-24T02:13:51;7.10;;;6.23;;
19278;SDS011;9773;47.062;15.446;2023-07-24T02:16:16;8.17;;;6.40;;
19278;SDS011;9773;47.062;15.446;2023-07-24T02:18:42;10.30;;;6.60;;
19278;SDS011;9773;47.062;15.446;2023-07-24T02:21:08;7.27;;;6.57;;
19278;SDS011;9773;47.062;15.446;2023-07-24T02:23:35;9.03;;;6.93;;
19278;SDS011;9773;47.062;15.446;2023-07-24T02:26:01;7.40;;;6.30;;
19278;SDS011;9773;47.062;15.446;2023-07-24T02:28:27;7.53;;;6.77;;
19278;SDS011;9773;47.062;15.446;2023-07-24T02:30:53;7.23;;;6.00;;
19278;SDS011;9773;47.062;15.446;2023-07-24T02:33:22;6.97;;;6.27;;
19278;SDS011;9773;47.062;15.446;2023-07-24T02:35:49;7.00;;;6.10;;
19278;SDS011;9773;47.062;15.446;2023-07-24T02:38:16;7.27;;;6.57;;
19278;SDS011;9773;47.062;15.446;2023-07-24T02:40:43;9.63;;;6.57;;
19278;SDS011;9773;47.062;15.446;2023-07-24T02:43:09;7.67;;;6.10;;
19278;SDS011;9773;47.062;15.446;2023-07-24T02:45:35;7.00;;;6.20;;
19278;SDS011;9773;47.062;15.446;2023-07-24T02:48:04;6.80;;;6.10;;
19278;SDS011;9773;47.062;15.446;2023-07-24T02:50:30;7.93;;;6.67;;
19278;SDS011;9773;47.062;15.446;2023-07-24T02:52:56;7.43;;;6.07;;
19278;SDS011;9773;47.062;15.446;2023-07-24T02:55:22;6.93;;;6.23;;
19278;SDS011;9773;47.062;15.446;2023-07-24T02:57:49;7.60;;;6.33;;
19278;SDS011;9773;47.062;15.446;2023-07-24T03:00:18;8.77;;;6.67;;
19278;SDS011;9773;47.062;15.446;2023-07-24T03:02:44;7.80;;;6.30;;
19278;SDS011;9773;47.062;15.446;2023-07-24T03:05:09;6.90;;;6.23;;
19278;SDS011;9773;47.062;15.446;2023-07-24T03:07:35;7.13;;;5.83;;
19278;SDS011;9773;47.062;15.446;2023-07-24T03:10:01;7.57;;;6.23;;
19278;SDS011;9773;47.062;15.446;2023-07-24T03:12:27;7.27;;;6.23;;
19278;SDS011;9773;47.062;15.446;2023-07-24T03:14:53;8.17;;;6.77;;
19278;SDS011;9773;47.062;15.446;2023-07-24T03:17:19;7.40;;;6.60;;
19278;SDS011;9773;47.062;15.446;2023-07-24T03:19:45;8.07;;;6.10;;
19278;SDS011;9773;47.062;15.446;2023-07-24T03:22:13;7.53;;;6.40;;
19278;SDS011;9773;47.062;15.446;2023-07-24T03:24:39;7.20;;;6.07;;
19278;SDS011;9773;47.062;15.446;2023-07-24T03:27:04;7.67;;;6.60;;
19278;SDS011;9773;47.062;15.446;2023-07-24T03:29:30;6.90;;;6.20;;
19278;SDS011;9773;47.062;15.446;2023-07-24T03:31:56;7.80;;;6.17;;
19278;SDS011;9773;47.062;15.446;2023-07-24T03:34:21;8.70;;;6.47;;
19278;SDS011;9773;47.062;15.446;2023-07-24T03:36:47;7.07;;;6.07;;
19278;SDS011;9773;47.062;15.446;2023-07-24T03:39:13;6.63;;;6.03;;
19278;SDS011;9773;47.062;15.446;2023-07-24T03:41:39;7.03;;;5.63;;
19278;SDS011;9773;47.062;15.446;2023-07-24T03:44:06;6.93;;;6.23;;
19278;SDS011;9773;47.062;15.446;2023-07-24T03:46:32;6.30;;;5.70;;
19278;SDS011;9773;47.062;15.446;2023-07-24T03:48:58;7.40;;;6.10;;
19278;SDS011;9773;47.062;15.446;2023-07-24T03:51:24;7.03;;;6.03;;
19278;SDS011;9773;47.062;15.446;2023-07-24T03:53:49;6.70;;;6.10;;
19278;SDS011;9773;47.062;15.446;2023-07-24T03:56:15;7.20;;;6.17;;
19278;SDS011;9773;47.062;15.446;2023-07-24T03:58:41;6.87;;;6.17;;
19278;SDS011;9773;47.062;15.446;2023-07-24T04:01:10;7.03;;;6.00;;
19278;SDS011;9773;47.062;15.446;2023-07-24T04:03:36;7.20;;;6.37;;
19278;SDS011;9773;47.062;15.446;2023-07-24T04:06:02;7.67;;;6.00;;
19278;SDS011;9773;47.062;15.446;2023-07-24T04:08:28;7.03;;;6.03;;
19278;SDS011;9773;47.062;15.446;2023-07-24T04:10:53;7.20;;;6.10;;
19278;SDS011;9773;47.062;15.446;2023-07-24T04:13:21;6.43;;;5.83;;
19278;SDS011;9773;47.062;15.446;2023-07-24T04:15:47;7.43;;;5.73;;
19278;SDS011;9773;47.062;15.446;2023-07-24T04:18:13;7.20;;;5.87;;
19278;SDS011;9773;47.062;15.446;2023-07-24T04:20:39;6.37;;;5.77;;
19278;SDS011;9773;47.062;15.446;2023-07-24T04:23:05;7.20;;;6.20;;
19278;SDS011;9773;47.062;15.446;2023-07-24T04:25:30;6.43;;;5.30;;
19278;SDS011;9773;47.062;15.446;2023-07-24T04:27:56;8.17;;;6.20;;
19278;SDS011;9773;47.062;15.446;2023-07-24T04:30:22;9.37;;;6.10;;
19278;SDS011;9773;47.062;15.446;2023-07-24T04:32:48;6.30;;;5.77;;
19278;SDS011;9773;47.062;15.446;2023-07-24T04:35:14;6.07;;;5.47;;
19278;SDS011;9773;47.062;15.446;2023-07-24T04:37:40;7.27;;;6.23;;
19278;SDS011;9773;47.062;15.446;2023-07-24T04:40:06;7.70;;;6.10;;
19278;SDS011;9773;47.062;15.446;2023-07-24T04:42:32;6.57;;;5.87;;
19278;SDS011;9773;47.062;15.446;2023-07-24T04:44:58;7.37;;;5.97;;
19278;SDS011;9773;47.062;15.446;2023-07-24T04:47:24;7.23;;;5.67;;
19278;SDS011;9773;47.062;15.446;2023-07-24T04:49:49;7.17;;;5.50;;
19278;SDS011;9773;47.062;15.446;2023-07-24T04:52:15;5.60;;;5.10;;
19278;SDS011;9773;47.062;15.446;2023-07-24T04:54:41;9.10;;;6.17;;
19278;SDS011;9773;47.062;15.446;2023-07-24T04:57:06;6.70;;;6.10;;
19278;SDS011;9773;47.062;15.446;2023-07-24T04:59:32;7.70;;;6.23;;
19278;SDS011;9773;47.062;15.446;2023-07-24T05:01:58;6.97;;;6.00;;
19278;SDS011;9773;47.062;15.446;2023-07-24T05:04:24;6.43;;;5.73;;
19278;SDS011;9773;47.062;15.446;2023-07-24T05:06:49;6.27;;;5.67;;
19278;SDS011;9773;47.062;15.446;2023-07-24T05:09:15;6.17;;;5.57;;
19278;SDS011;9773;47.062;15.446;2023-07-24T05:11:41;7.37;;;5.83;;
19278;SDS011;9773;47.062;15.446;2023-07-24T05:14:09;6.03;;;5.43;;
19278;SDS011;9773;47.062;15.446;2023-07-24T05:16:35;6.20;;;5.60;;
19278;SDS011;9773;47.062;15.446;2023-07-24T05:19:01;5.77;;;5.23;;
19278;SDS011;9773;47.062;15.446;2023-07-24T05:21:27;5.60;;;5.10;;
19278;SDS011;9773;47.062;15.446;2023-07-24T05:23:53;5.90;;;5.40;;
19278;SDS011;9773;47.062;15.446;2023-07-24T05:26:18;6.00;;;5.50;;
19278;SDS011;9773;47.062;15.446;2023-07-24T05:28:44;5.60;;;5.07;;
19278;SDS011;9773;47.062;15.446;2023-07-24T05:31:10;6.13;;;5.43;;
19278;SDS011;9773;47.062;15.446;2023-07-24T05:33:37;5.80;;;5.20;;
19278;SDS011;9773;47.062;15.446;2023-07-24T05:36:03;6.07;;;5.47;;
19278;SDS011;9773;47.062;15.446;2023-07-24T05:38:30;5.93;;;5.37;;
19278;SDS011;9773;47.062;15.446;2023-07-24T05:40:59;7.00;;;6.00;;
19278;SDS011;9773;47.062;15.446;2023-07-24T05:43:27;6.37;;;5.77;;
19278;SDS011;9773;47.062;15.446;2023-07-24T05:45:53;6.23;;;5.53;;
19278;SDS011;9773;47.062;15.446;2023-07-24T05:48:20;6.40;;;5.80;;
19278;SDS011;9773;47.062;15.446;2023-07-24T05:50:47;5.73;;;5.23;;
19278;SDS011;9773;47.062;15.446;2023-07-24T05:53:13;6.03;;;5.43;;
19278;SDS011;9773;47.062;15.446;2023-07-24T05:55:40;6.00;;;5.50;;
19278;SDS011;9773;47.062;15.446;2023-07-24T05:58:07;6.43;;;5.60;;
19278;SDS011;9773;47.062;15.446;2023-07-24T06:00:33;8.73;;;5.53;;
19278;SDS011;9773;47.062;15.446;2023-07-24T06:02:59;6.00;;;5.40;;
19278;SDS011;9773;47.062;15.446;2023-07-24T06:05:24;7.10;;;5.73;;
19278;SDS011;9773;47.062;15.446;2023-07-24T06:07:51;6.70;;;5.70;;
19278;SDS011;9773;47.062;15.446;2023-07-24T06:10:17;8.07;;;5.63;;
19278;SDS011;9773;47.062;15.446;2023-07-24T06:12:43;5.37;;;4.87;;
19278;SDS011;9773;47.062;15.446;2023-07-24T06:15:09;5.40;;;4.90;;
19278;SDS011;9773;47.062;15.446;2023-07-24T06:17:35;5.90;;;5.40;;
19278;SDS011;9773;47.062;15.446;2023-07-24T06:20:00;5.53;;;5.03;;
19278;SDS011;9773;47.062;15.446;2023-07-24T06:22:26;6.53;;;5.83;;
19278;SDS011;9773;47.062;15.446;2023-07-24T06:24:54;6.30;;;5.70;;
19278;SDS011;9773;47.062;15.446;2023-07-24T06:27:21;6.70;;;5.13;;
19278;SDS011;9773;47.062;15.446;2023-07-24T06:29:46;5.83;;;5.30;;
19278;SDS011;9773;47.062;15.446;2023-07-24T06:32:12;5.83;;;5.33;;
19278;SDS011;9773;47.062;15.446;2023-07-24T06:34:38;6.13;;;5.53;;
19278;SDS011;9773;47.062;15.446;2023-07-24T06:37:09;7.18;;;5.70;;
19278;SDS011;9773;47.062;15.446;2023-07-24T06:39:34;7.18;;;5.40;;
19278;SDS011;9773;47.062;15.446;2023-07-24T06:42:00;7.53;;;5.23;;
19278;SDS011;9773;47.062;15.446;2023-07-24T06:44:28;5.82;;;5.22;;
19278;SDS011;9773;47.062;15.446;2023-07-24T06:46:54;6.35;;;5.75;;
19278;SDS011;9773;47.062;15.446;2023-07-24T06:49:19;7.75;;;5.53;;
19278;SDS011;9773;47.062;15.446;2023-07-24T06:51:45;6.25;;;5.65;;
19278;SDS011;9773;47.062;15.446;2023-07-24T06:54:11;6.13;;;5.47;;
19278;SDS011;9773;47.062;15.446;2023-07-24T06:56:37;6.68;;;6.00;;
19278;SDS011;9773;47.062;15.446;2023-07-24T06:59:02;7.00;;;6.10;;
19278;SDS011;9773;47.062;15.446;2023-07-24T07:01:28;6.45;;;5.85;;
19278;SDS011;9773;47.062;15.446;2023-07-24T07:03:54;8.32;;;6.32;;
19278;SDS011;9773;47.062;15.446;2023-07-24T07:06:19;8.23;;;6.20;;
19278;SDS011;9773;47.062;15.446;2023-07-24T07:08:45;6.72;;;5.47;;
19278;SDS011;9773;47.062;15.446;2023-07-24T07:11:11;6.88;;;6.20;;
19278;SDS011;9773;47.062;15.446;2023-07-24T07:13:37;6.40;;;5.70;;
19278;SDS011;9773;47.062;15.446;2023-07-24T07:16:02;8.50;;;6.32;;
19278;SDS011;9773;47.062;15.446;2023-07-24T07:18:28;6.88;;;6.28;;
19278;SDS011;9773;47.062;15.446;2023-07-24T07:20:54;7.82;;;6.00;;
19278;SDS011;9773;47.062;15.446;2023-07-24T07:23:20;8.25;;;6.47;;
19278;SDS011;9773;47.062;15.446;2023-07-24T07:25:46;7.00;;;6.18;;
19278;SDS011;9773;47.062;15.446;2023-07-24T07:28:12;6.47;;;5.80;;
19278;SDS011;9773;47.062;15.446;2023-07-24T07:30:39;7.57;;;6.40;;
19278;SDS011;9773;47.062;15.446;2023-07-24T07:33:05;7.90;;;5.53;;
19278;SDS011;9773;47.062;15.446;2023-07-24T07:35:31;7.70;;;6.32;;
19278;SDS011;9773;47.062;15.446;2023-07-24T07:37:58;6.75;;;6.05;;
19278;SDS011;9773;47.062;15.446;2023-07-24T07:40:24;8.60;;;6.32;;
19278;SDS011;9773;47.062;15.446;2023-07-24T07:42:51;6.97;;;6.28;;
19278;SDS011;9773;47.062;15.446;2023-07-24T07:45:18;7.90;;;7.07;;
19278;SDS011;9773;47.062;15.446;2023-07-24T07:47:44;7.80;;;6.25;;
19278;SDS011;9773;47.062;15.446;2023-07-24T07:50:10;10.95;;;6.15;;
19278;SDS011;9773;47.062;15.446;2023-07-24T07:52:36;7.30;;;6.57;;
19278;SDS011;9773;47.062;15.446;2023-07-24T07:55:02;8.52;;;6.35;;
19278;SDS011;9773;47.062;15.446;2023-07-24T07:57:28;7.65;;;6.55;;
19278;SDS011;9773;47.062;15.446;2023-07-24T07:59:54;6.55;;;5.95;;
19278;SDS011;9773;47.062;15.446;2023-07-24T08:02:19;6.97;;;6.28;;
19278;SDS011;9773;47.062;15.446;2023-07-24T08:04:45;7.15;;;6.45;;
19278;SDS011;9773;47.062;15.446;2023-07-24T08:07:11;6.80;;;6.20;;
19278;SDS011;9773;47.062;15.446;2023-07-24T08:09:36;10.20;;;6.13;;
19278;SDS011;9773;47.062;15.446;2023-07-24T08:12:03;7.85;;;5.93;;
19278;SDS011;9773;47.062;15.446;2023-07-24T08:14:30;7.93;;;6.10;;
19278;SDS011;9773;47.062;15.446;2023-07-24T08:16:55;7.82;;;6.18;;
19278;SDS011;9773;47.062;15.446;2023-07-24T08:19:21;7.53;;;6.43;;
19278;SDS011;9773;47.062;15.446;2023-07-24T08:21:47;7.28;;;6.43;;
19278;SDS011;9773;47.062;15.446;2023-07-24T08:24:13;6.78;;;6.18;;
19278;SDS011;9773;47.062;15.446;2023-07-24T08:26:38;8.35;;;6.45;;
19278;SDS011;9773;47.062;15.446;2023-07-24T08:29:05;8.32;;;6.38;;
19278;SDS011;9773;47.062;15.446;2023-07-24T08:31:30;8.68;;;6.20;;
19278;SDS011;9773;47.062;15.446;2023-07-24T08:33:56;7.47;;;6.78;;
19278;SDS011;9773;47.062;15.446;2023-07-24T08:36:23;7.45;;;6.32;;
19278;SDS011;9773;47.062;15.446;2023-07-24T08:38:48;6.90;;;5.85;;
19278;SDS011;9773;47.062;15.446;2023-07-24T08:41:14;12.07;;;7.93;;
19278;SDS011;9773;47.062;15.446;2023-07-24T08:43:41;7.60;;;6.85;;
19278;SDS011;9773;47.062;15.446;2023-07-24T08:46:08;6.63;;;6.03;;
19278;SDS011;9773;47.062;15.446;2023-07-24T08:48:38;8.85;;;7.22;;
19278;SDS011;9773;47.062;15.446;2023-07-24T08:51:09;6.90;;;6.20;;
19278;SDS011;9773;47.062;15.446;2023-07-24T08:53:37;8.27;;;6.07;;
19278;SDS011;9773;47.062;15.446;2023-07-24T08:56:07;8.35;;;7.15;;
19278;SDS011;9773;47.062;15.446;2023-07-24T08:58:34;7.65;;;6.22;;
19278;SDS011;9773;47.062;15.446;2023-07-24T09:01:01;6.95;;;6.35;;
19278;SDS011;9773;47.062;15.446;2023-07-24T09:03:28;7.90;;;6.72;;
19278;SDS011;9773;47.062;15.446;2023-07-24T09:05:54;7.10;;;6.15;;
19278;SDS011;9773;47.062;15.446;2023-07-24T09:08:32;8.88;;;6.70;;
19278;SDS011;9773;47.062;15.446;2023-07-24T09:10:59;7.55;;;6.60;;
19278;SDS011;9773;47.062;15.446;2023-07-24T09:13:27;7.20;;;6.50;;
19278;SDS011;9773;47.062;15.446;2023-07-24T09:15:53;7.00;;;6.30;;
19278;SDS011;9773;47.062;15.446;2023-07-24T09:18:20;8.63;;;6.07;;
19278;SDS011;9773;47.062;15.446;2023-07-24T09:20:46;7.40;;;6.40;;
19278;SDS011;9773;47.062;15.446;2023-07-24T09:23:13;7.72;;;6.40;;
19278;SDS011;9773;47.062;15.446;2023-07-24T09:25:40;8.32;;;6.20;;
19278;SDS011;9773;47.062;15.446;2023-07-24T09:28:16;7.38;;;6.25;;
19278;SDS011;9773;47.062;15.446;2023-07-24T09:30:51;6.85;;;5.88;;
19278;SDS011;9773;47.062;15.446;2023-07-24T09:33:18;8.70;;;6.82;;
19278;SDS011;9773;47.062;15.446;2023-07-24T09:35:44;7.40;;;6.38;;
19278;SDS011;9773;47.062;15.446;2023-07-24T09:38:10;7.40;;;6.60;;
19278;SDS011;9773;47.062;15.446;2023-07-24T09:40:37;6.95;;;6.25;;
19278;SDS011;9773;47.062;15.446;2023-07-24T09:43:17;7.28;;;6.30;;
19278;SDS011;9773;47.062;15.446;2023-07-24T09:45:47;6.95;;;6.30;;
19278;SDS011;9773;47.062;15.446;2023-07-24T09:48:14;7.15;;;5.82;;
19278;SDS011;9773;47.062;15.446;2023-07-24T09:50:41;8.68;;;6.35;;
19278;SDS011;9773;47.062;15.446;2023-07-24T09:53:12;7.30;;;6.38;;
19278;SDS011;9773;47.062;15.446;2023-07-24T09:56:00;7.05;;;6.35;;
19278;SDS011;9773;47.062;15.446;2023-07-24T09:58:29;7.45;;;6.32;;
19278;SDS011;9773;47.062;15.446;2023-07-24T10:00:55;7.38;;;6.18;;
19278;SDS011;9773;47.062;15.446;2023-07-24T10:03:22;9.60;;;5.50;;
19278;SDS011;9773;47.062;15.446;2023-07-24T10:05:48;7.25;;;6.38;;
19278;SDS011;9773;47.062;15.446;2023-07-24T10:08:16;6.38;;;5.65;;
19278;SDS011;9773;47.062;15.446;2023-07-24T10:10:43;6.68;;;6.00;;
19278;SDS011;9773;47.062;15.446;2023-07-24T10:13:10;8.40;;;6.03;;
19278;SDS011;9773;47.062;15.446;2023-07-24T10:15:40;6.25;;;5.65;;
19278;SDS011;9773;47.062;15.446;2023-07-24T10:18:07;6.80;;;6.20;;
19278;SDS011;9773;47.062;15.446;2023-07-24T10:20:34;7.00;;;6.30;;
19278;SDS011;9773;47.062;15.446;2023-07-24T10:23:01;8.15;;;6.18;;
19278;SDS011;9773;47.062;15.446;2023-07-24T10:25:31;6.78;;;6.18;;
19278;SDS011;9773;47.062;15.446;2023-07-24T10:28:04;7.43;;;6.47;;
19278;SDS011;9773;47.062;15.446;2023-07-24T10:30:35;7.63;;;6.75;;
19278;SDS011;9773;47.062;15.446;2023-07-24T10:33:09;7.53;;;6.80;;
19278;SDS011;9773;47.062;15.446;2023-07-24T10:35:43;7.97;;;6.50;;
19278;SDS011;9773;47.062;15.446;2023-07-24T10:38:11;7.57;;;6.88;;
19278;SDS011;9773;47.062;15.446;2023-07-24T10:40:42;7.30;;;6.53;;
19278;SDS011;9773;47.062;15.446;2023-07-24T10:43:11;7.72;;;6.90;;
19278;SDS011;9773;47.062;15.446;2023-07-24T10:45:50;7.97;;;7.18;;
19278;SDS011;9773;47.062;15.446;2023-07-24T10:48:18;7.35;;;6.38;;
19278;SDS011;9773;47.062;15.446;2023-07-24T10:50:45;8.05;;;6.70;;
19278;SDS011;9773;47.062;15.446;2023-07-24T10:53:14;7.80;;;7.10;;
19278;SDS011;9773;47.062;15.446;2023-07-24T10:55:45;8.07;;;7.28;;
19278;SDS011;9773;47.062;15.446;2023-07-24T10:58:16;8.40;;;7.60;;
19278;SDS011;9773;47.062;15.446;2023-07-24T11:00:45;8.13;;;7.32;;
19278;SDS011;9773;47.062;15.446;2023-07-24T11:03:12;8.90;;;7.63;;
19278;SDS011;9773;47.062;15.446;2023-07-24T11:05:40;8.25;;;7.55;;
19278;SDS011;9773;47.062;15.446;2023-07-24T11:08:12;7.72;;;6.72;;
19278;SDS011;9773;47.062;15.446;2023-07-24T11:13:15;8.23;;;7.43;;
19278;SDS011;9773;47.062;15.446;2023-07-24T11:15:41;10.57;;;7.68;;
19278;SDS011;9773;47.062;15.446;2023-07-24T11:18:07;8.63;;;7.80;;
19278;SDS011;9773;47.062;15.446;2023-07-24T11:20:36;8.32;;;7.53;;
19278;SDS011;9773;47.062;15.446;2023-07-24T11:23:15;9.25;;;7.38;;
19278;SDS011;9773;47.062;15.446;2023-07-24T11:25:41;8.75;;;7.95;;
19278;SDS011;9773;47.062;15.446;2023-07-24T11:28:07;9.82;;;8.18;;
19278;SDS011;9773;47.062;15.446;2023-07-24T11:30:35;9.82;;;8.00;;
19278;SDS011;9773;47.062;15.446;2023-07-24T11:33:03;10.50;;;8.57;;
19278;SDS011;9773;47.062;15.446;2023-07-24T11:35:31;10.63;;;7.40;;
19278;SDS011;9773;47.062;15.446;2023-07-24T11:37:57;11.43;;;7.78;;
19278;SDS011;9773;47.062;15.446;2023-07-24T11:40:30;8.75;;;7.85;;
19278;SDS011;9773;47.062;15.446;2023-07-24T11:45:43;9.60;;;8.15;;
19278;SDS011;9773;47.062;15.446;2023-07-24T11:48:09;11.65;;;8.45;;
19278;SDS011;9773;47.062;15.446;2023-07-24T11:50:46;8.90;;;8.00;;
19278;SDS011;9773;47.062;15.446;2023-07-24T11:53:29;9.05;;;8.15;;
19278;SDS011;9773;47.062;15.446;2023-07-24T11:55:58;9.90;;;8.90;;
19278;SDS011;9773;47.062;15.446;2023-07-24T11:58:26;9.88;;;7.88;;
19278;SDS011;9773;47.062;15.446;2023-07-24T12:00:53;10.18;;;7.97;;
19278;SDS011;9773;47.062;15.446;2023-07-24T12:03:20;10.65;;;8.45;;
19278;SDS011;9773;47.062;15.446;2023-07-24T12:05:50;9.38;;;7.93;;
19278;SDS011;9773;47.062;15.446;2023-07-24T12:08:16;8.68;;;7.63;;
19278;SDS011;9773;47.062;15.446;2023-07-24T12:10:44;8.88;;;8.07;;
19278;SDS011;9773;47.062;15.446;2023-07-24T12:13:09;9.40;;;7.80;;
19278;SDS011;9773;47.062;15.446;2023-07-24T12:15:36;9.38;;;8.35;;
19278;SDS011;9773;47.062;15.446;2023-07-24T12:18:03;11.07;;;7.82;;
19278;SDS011;9773;47.062;15.446;2023-07-24T12:20:29;9.85;;;7.97;;
19278;SDS011;9773;47.062;15.446;2023-07-24T12:22:56;9.25;;;8.30;;
19278;SDS011;9773;47.062;15.446;2023-07-24T12:25:23;8.70;;;7.90;;
19278;SDS011;9773;47.062;15.446;2023-07-24T12:27:49;8.88;;;8.00;;
19278;SDS011;9773;47.062;15.446;2023-07-24T12:30:15;9.02;;;7.88;;
19278;SDS011;9773;47.062;15.446;2023-07-24T12:32:41;9.43;;;8.48;;
19278;SDS011;9773;47.062;15.446;2023-07-24T12:35:10;8.98;;;8.05;;
19278;SDS011;9773;47.062;15.446;2023-07-24T12:37:36;10.93;;;8.60;;
19278;SDS011;9773;47.062;15.446;2023-07-24T12:40:04;8.95;;;8.05;;
19278;SDS011;9773;47.062;15.446;2023-07-24T12:42:30;8.73;;;7.85;;
19278;SDS011;9773;47.062;15.446;2023-07-24T12:44:56;10.13;;;8.35;;
19278;SDS011;9773;47.062;15.446;2023-07-24T12:47:23;9.10;;;8.07;;
19278;SDS011;9773;47.062;15.446;2023-07-24T12:49:48;10.80;;;8.60;;
19278;SDS011;9773;47.062;15.446;2023-07-24T12:52:14;10.43;;;7.68;;
19278;SDS011;9773;47.062;15.446;2023-07-24T12:54:41;9.23;;;8.32;;
19278;SDS011;9773;47.062;15.446;2023-07-24T12:57:06;10.55;;;8.23;;
19278;SDS011;9773;47.062;15.446;2023-07-24T12:59:32;8.93;;;7.88;;
19278;SDS011;9773;47.062;15.446;2023-07-24T13:01:58;10.32;;;8.20;;
19278;SDS011;9773;47.062;15.446;2023-07-24T13:04:24;8.15;;;7.18;;
19278;SDS011;9773;47.062;15.446;2023-07-24T13:06:50;10.65;;;8.27;;
19278;SDS011;9773;47.062;15.446;2023-07-24T13:09:15;12.85;;;7.10;;
19278;SDS011;9773;47.062;15.446;2023-07-24T13:11:42;12.23;;;8.38;;
19278;SDS011;9773;47.062;15.446;2023-07-24T13:14:08;8.35;;;7.22;;
19278;SDS011;9773;47.062;15.446;2023-07-24T13:16:34;10.63;;;7.88;;
19278;SDS011;9773;47.062;15.446;2023-07-24T13:19:00;9.27;;;7.55;;
19278;SDS011;9773;47.062;15.446;2023-07-24T13:21:26;8.20;;;7.20;;
19278;SDS011;9773;47.062;15.446;2023-07-24T13:23:51;8.93;;;8.02;;
19278;SDS011;9773;47.062;15.446;2023-07-24T13:26:17;8.85;;;7.95;;
19278;SDS011;9773;47.062;15.446;2023-07-24T13:28:43;9.27;;;8.10;;
19278;SDS011;9773;47.062;15.446;2023-07-24T13:33:37;10.95;;;7.65;;
19278;SDS011;9773;47.062;15.446;2023-07-24T13:36:03;9.10;;;7.10;;
19278;SDS011;9773;47.062;15.446;2023-07-24T13:38:29;8.90;;;7.60;;
19278;SDS011;9773;47.062;15.446;2023-07-24T13:40:55;9.00;;;7.50;;
19278;SDS011;9773;47.062;15.446;2023-07-24T13:43:21;10.27;;;8.52;;
19278;SDS011;9773;47.062;15.446;2023-07-24T13:45:47;10.20;;;8.10;;
19278;SDS011;9773;47.062;15.446;2023-07-24T13:48:12;8.55;;;7.32;;
19278;SDS011;9773;47.062;15.446;2023-07-24T13:50:38;8.98;;;7.72;;
19278;SDS011;9773;47.062;15.446;2023-07-24T13:53:04;8.20;;;7.32;;
19278;SDS011;9773;47.062;15.446;2023-07-24T13:55:30;10.32;;;7.80;;
19278;SDS011;9773;47.062;15.446;2023-07-24T13:57:56;9.95;;;7.88;;
19278;SDS011;9773;47.062;15.446;2023-07-24T14:00:22;10.20;;;7.38;;
19278;SDS011;9773;47.062;15.446;2023-07-24T14:02:48;9.63;;;7.97;;
19278;SDS011;9773;47.062;15.446;2023-07-24T14:05:15;10.43;;;7.13;;
19278;SDS011;9773;47.062;15.446;2023-07-24T14:07:41;10.35;;;7.40;;
19278;SDS011;9773;47.062;15.446;2023-07-24T14:10:07;9.35;;;7.72;;
19278;SDS011;9773;47.062;15.446;2023-07-24T14:12:34;11.52;;;7.68;;
19278;SDS011;9773;47.062;15.446;2023-07-24T14:14:59;10.07;;;7.90;;
19278;SDS011;9773;47.062;15.446;2023-07-24T14:17:25;9.50;;;7.57;;
19278;SDS011;9773;47.062;15.446;2023-07-24T14:19:51;9.85;;;8.25;;
19278;SDS011;9773;47.062;15.446;2023-07-24T14:22:17;10.27;;;7.95;;
19278;SDS011;9773;47.062;15.446;2023-07-24T14:24:43;9.05;;;7.72;;
19278;SDS011;9773;47.062;15.446;2023-07-24T14:27:11;10.73;;;8.10;;
19278;SDS011;9773;47.062;15.446;2023-07-24T14:29:36;10.73;;;8.20;;
19278;SDS011;9773;47.062;15.446;2023-07-24T14:32:03;9.63;;;7.75;;
19278;SDS011;9773;47.062;15.446;2023-07-24T14:34:30;9.57;;;7.45;;
19278;SDS011;9773;47.062;15.446;2023-07-24T14:36:56;8.15;;;7.13;;
19278;SDS011;9773;47.062;15.446;2023-07-24T14:39:21;9.15;;;6.75;;
19278;SDS011;9773;47.062;15.446;2023-07-24T14:41:47;8.85;;;7.57;;
19278;SDS011;9773;47.062;15.446;2023-07-24T14:44:13;7.93;;;6.35;;
19278;SDS011;9773;47.062;15.446;2023-07-24T14:46:40;7.68;;;6.72;;
19278;SDS011;9773;47.062;15.446;2023-07-24T14:49:06;7.75;;;6.45;;
19278;SDS011;9773;47.062;15.446;2023-07-24T14:51:32;7.38;;;6.00;;
19278;SDS011;9773;47.062;15.446;2023-07-24T14:53:58;7.30;;;5.45;;
19278;SDS011;9773;47.062;15.446;2023-07-24T14:56:24;7.75;;;6.07;;